sensor_id;sensor_type;location;lat;lon;timestamp;temperature;humidity
20400;DHT22;10359;53.596;22.520;2023-09-08T00:04:47;11.00;99.90
20400;DHT22;10359;53.596;22.520;2023-09-08T00:11:17;10.90;99.90
20400;DHT22;10359;53.596;22.520;2023-09-08T00:17:28;10.80;99.90
20400;DHT22;10359;53.596;22.520;2023-09-08T00:23:58;10.80;99.90
20400;DHT22;10359;53.596;22.520;2023-09-08T00:30:50;10.80;99.90
20400;DHT22;10359;53.596;22.520;2023-09-08T00:37:41;10.70;99.90
20400;DHT22;10359;53.596;22.520;2023-09-08T00:43:53;10.70;99.90
20400;DHT22;10359;53.596;22.520;2023-09-08T00:50:32;10.60;99.90
20400;DHT22;10359;53.596;22.520;2023-09-08T00:57:31;10.40;99.90
20400;DHT22;10359;53.596;22.520;2023-09-08T01:04:30;10.40;99.90
20400;DHT22;10359;53.596;22.520;2023-09-08T01:11:11;10.30;99.90
20400;DHT22;10359;53.596;22.520;2023-09-08T01:17:28;10.30;99.90
20400;DHT22;10359;53.596;22.520;2023-09-08T01:25:12;10.20;99.90
20400;DHT22;10359;53.596;22.520;2023-09-08T01:31:58;10.20;99.90
20400;DHT22;10359;53.596;22.520;2023-09-08T01:38:39;10.10;99.90
20400;DHT22;10359;53.596;22.520;2023-09-08T01:45:38;10.10;99.90
20400;DHT22;10359;53.596;22.520;2023-09-08T01:52:24;10.00;99.90
20400;DHT22;10359;53.596;22.520;2023-09-08T01:58:50;10.00;99.90
20400;DHT22;10359;53.596;22.520;2023-09-08T02:02:02;9.90;99.90
20400;DHT22;10359;53.596;22.520;2023-09-08T02:08:39;9.90;99.90
20400;DHT22;10359;53.596;22.520;2023-09-08T02:15:24;9.80;99.90
20400;DHT22;10359;53.596;22.520;2023-09-08T02:22:12;9.80;99.90
20400;DHT22;10359;53.596;22.520;2023-09-08T02:28:40;9.80;99.90
20400;DHT22;10359;53.596;22.520;2023-09-08T02:38:31;9.70;99.90
20400;DHT22;10359;53.596;22.520;2023-09-08T02:45:18;9.70;99.90
20400;DHT22;10359;53.596;22.520;2023-09-08T02:51:58;9.50;99.90
20400;DHT22;10359;53.596;22.520;2023-09-08T02:58:46;9.50;99.90
20400;DHT22;10359;53.596;22.520;2023-09-08T03:05:26;9.50;99.90
20400;DHT22;10359;53.596;22.520;2023-09-08T03:12:12;9.50;99.90
20400;DHT22;10359;53.596;22.520;2023-09-08T03:19:11;9.40;99.90
20400;DHT22;10359;53.596;22.520;2023-09-08T03:22:10;9.30;99.90
20400;DHT22;10359;53.596;22.520;2023-09-08T03:25:35;9.30;99.90
20400;DHT22;10359;53.596;22.520;2023-09-08T03:28:31;9.20;99.90
20400;DHT22;10359;53.596;22.520;2023-09-08T03:35:20;9.20;99.90
20400;DHT22;10359;53.596;22.520;2023-09-08T03:42:06;9.20;99.90
20400;DHT22;10359;53.596;22.520;2023-09-08T03:48:46;9.20;99.90
20400;DHT22;10359;53.596;22.520;2023-09-08T03:55:28;9.20;99.90
20400;DHT22;10359;53.596;22.520;2023-09-08T04:02:08;9.30;99.90
20400;DHT22;10359;53.596;22.520;2023-09-08T04:15:53;9.30;99.90
20400;DHT22;10359;53.596;22.520;2023-09-08T04:22:32;9.50;99.90
20400;DHT22;10359;53.596;22.520;2023-09-08T04:26:04;9.50;99.90
20400;DHT22;10359;53.596;22.520;2023-09-08T04:28:59;9.60;99.90
20400;DHT22;10359;53.596;22.520;2023-09-08T04:35:51;9.70;99.90
20400;DHT22;10359;53.596;22.520;2023-09-08T04:49:43;10.40;99.90
20400;DHT22;10359;53.596;22.520;2023-09-08T04:56:13;10.50;99.90
20400;DHT22;10359;53.596;22.520;2023-09-08T05:10:19;10.90;99.90
20400;DHT22;10359;53.596;22.520;2023-09-08T05:20:50;11.00;99.90
20400;DHT22;10359;53.596;22.520;2023-09-08T05:27:41;11.30;99.90
20400;DHT22;10359;53.596;22.520;2023-09-08T05:34:32;11.80;99.90
20400;DHT22;10359;53.596;22.520;2023-09-08T05:41:19;12.00;99.90
20400;DHT22;10359;53.596;22.520;2023-09-08T05:47:58;12.50;99.90
20400;DHT22;10359;53.596;22.520;2023-09-08T06:05:30;13.50;99.90
20400;DHT22;10359;53.596;22.520;2023-09-08T06:27:45;15.20;99.90
20400;DHT22;10359;53.596;22.520;2023-09-08T06:33:56;15.80;99.90
20400;DHT22;10359;53.596;22.520;2023-09-08T06:40:36;16.50;99.90
20400;DHT22;10359;53.596;22.520;2023-09-08T06:43:37;16.70;99.90
20400;DHT22;10359;53.596;22.520;2023-09-08T06:58:10;17.40;99.90
20400;DHT22;10359;53.596;22.520;2023-09-08T07:01:08;17.70;99.90
20400;DHT22;10359;53.596;22.520;2023-09-08T07:10:43;18.20;99.90
20400;DHT22;10359;53.596;22.520;2023-09-08T07:17:32;18.40;99.90
20400;DHT22;10359;53.596;22.520;2023-09-08T07:24:23;18.80;99.90
20400;DHT22;10359;53.596;22.520;2023-09-08T07:45:45;19.60;99.90
20400;DHT22;10359;53.596;22.520;2023-09-08T07:52:30;19.90;99.90
20400;DHT22;10359;53.596;22.520;2023-09-08T07:59:28;20.10;99.90
20400;DHT22;10359;53.596;22.520;2023-09-08T08:10:17;20.80;99.90
20400;DHT22;10359;53.596;22.520;2023-09-08T08:16:58;21.20;99.90
20400;DHT22;10359;53.596;22.520;2023-09-08T08:23:33;21.60;99.90
20400;DHT22;10359;53.596;22.520;2023-09-08T08:26:11;21.70;99.90
20400;DHT22;10359;53.596;22.520;2023-09-08T08:36:24;22.20;99.90
20400;DHT22;10359;53.596;22.520;2023-09-08T08:43:13;22.50;99.90
20400;DHT22;10359;53.596;22.520;2023-09-08T08:50:11;22.70;99.90
20400;DHT22;10359;53.596;22.520;2023-09-08T08:56:58;23.20;99.90
20400;DHT22;10359;53.596;22.520;2023-09-08T09:00:00;23.20;99.90
20400;DHT22;10359;53.596;22.520;2023-09-08T09:06:45;23.40;99.90
20400;DHT22;10359;53.596;22.520;2023-09-08T09:17:10;24.00;99.90
20400;DHT22;10359;53.596;22.520;2023-09-08T09:23:44;24.40;99.90
20400;DHT22;10359;53.596;22.520;2023-09-08T09:30:48;24.70;99.90
20400;DHT22;10359;53.596;22.520;2023-09-08T09:37:42;24.90;99.90
20400;DHT22;10359;53.596;22.520;2023-09-08T09:44:22;25.70;99.90
20400;DHT22;10359;53.596;22.520;2023-09-08T09:51:14;25.90;99.90
20400;DHT22;10359;53.596;22.520;2023-09-08T09:57:56;25.70;99.90
20400;DHT22;10359;53.596;22.520;2023-09-08T10:08:34;25.90;99.90
20400;DHT22;10359;53.596;22.520;2023-09-08T10:15:07;25.80;99.90
20400;DHT22;10359;53.596;22.520;2023-09-08T10:28:22;25.80;99.90
20400;DHT22;10359;53.596;22.520;2023-09-08T10:31:42;25.80;99.90
20400;DHT22;10359;53.596;22.520;2023-09-08T10:34:39;26.00;99.90
20400;DHT22;10359;53.596;22.520;2023-09-08T10:41:27;26.10;99.90
20400;DHT22;10359;53.596;22.520;2023-09-08T10:51:14;26.40;99.90
20400;DHT22;10359;53.596;22.520;2023-09-08T10:57:54;26.30;99.90
20400;DHT22;10359;53.596;22.520;2023-09-08T11:08:10;26.30;99.90
20400;DHT22;10359;53.596;22.520;2023-09-08T11:14:30;26.40;99.90
20400;DHT22;10359;53.596;22.520;2023-09-08T11:21:27;26.30;99.90
20400;DHT22;10359;53.596;22.520;2023-09-08T11:28:10;26.40;99.90
20400;DHT22;10359;53.596;22.520;2023-09-08T11:31:05;26.50;99.90
20400;DHT22;10359;53.596;22.520;2023-09-08T11:33:42;26.50;99.90
20400;DHT22;10359;53.596;22.520;2023-09-08T11:43:46;26.70;99.90
20400;DHT22;10359;53.596;22.520;2023-09-08T11:50:43;26.80;99.90
20400;DHT22;10359;53.596;22.520;2023-09-08T11:53:39;26.90;99.90
20400;DHT22;10359;53.596;22.520;2023-09-08T12:00:38;26.70;99.90
20400;DHT22;10359;53.596;22.520;2023-09-08T12:07:25;26.80;99.90
20400;DHT22;10359;53.596;22.520;2023-09-08T12:14:15;26.70;99.90
20400;DHT22;10359;53.596;22.520;2023-09-08T12:21:05;26.50;99.90
20400;DHT22;10359;53.596;22.520;2023-09-08T12:24:08;26.70;99.90
20400;DHT22;10359;53.596;22.520;2023-09-08T12:31:05;26.80;99.90
20400;DHT22;10359;53.596;22.520;2023-09-08T12:34:27;26.70;99.90
20400;DHT22;10359;53.596;22.520;2023-09-08T12:40:59;26.70;99.90
20400;DHT22;10359;53.596;22.520;2023-09-08T12:47:49;26.80;99.90
20400;DHT22;10359;53.596;22.520;2023-09-08T12:54:41;26.80;99.90
20400;DHT22;10359;53.596;22.520;2023-09-08T13:01:34;27.10;99.90
20400;DHT22;10359;53.596;22.520;2023-09-08T13:08:25;27.10;99.90
20400;DHT22;10359;53.596;22.520;2023-09-08T13:15:16;27.20;99.90
20400;DHT22;10359;53.596;22.520;2023-09-08T13:22:07;27.20;99.90
20400;DHT22;10359;53.596;22.520;2023-09-08T13:28:53;27.10;99.90
20400;DHT22;10359;53.596;22.520;2023-09-08T13:31:58;26.90;99.90
20400;DHT22;10359;53.596;22.520;2023-09-08T13:38:19;26.80;99.90
20400;DHT22;10359;53.596;22.520;2023-09-08T13:45:11;26.90;99.90
20400;DHT22;10359;53.596;22.520;2023-09-08T13:52:02;26.70;99.90
20400;DHT22;10359;53.596;22.520;2023-09-08T13:59:05;26.60;99.90
20400;DHT22;10359;53.596;22.520;2023-09-08T14:13:49;26.60;99.90
20400;DHT22;10359;53.596;22.520;2023-09-08T14:20:39;26.10;99.90
20400;DHT22;10359;53.596;22.520;2023-09-08T14:27:21;25.80;99.90
20400;DHT22;10359;53.596;22.520;2023-09-08T14:30:52;25.70;99.90
20400;DHT22;10359;53.596;22.520;2023-09-08T14:33:49;25.50;99.90
20400;DHT22;10359;53.596;22.520;2023-09-08T14:44:38;25.10;99.90
20400;DHT22;10359;53.596;22.520;2023-09-08T14:51:28;25.10;99.90
20400;DHT22;10359;53.596;22.520;2023-09-08T14:58:09;24.90;99.90
20400;DHT22;10359;53.596;22.520;2023-09-08T15:05:09;24.70;99.90
20400;DHT22;10359;53.596;22.520;2023-09-08T15:11:57;24.60;99.90
20400;DHT22;10359;53.596;22.520;2023-09-08T15:18:44;24.60;99.90
20400;DHT22;10359;53.596;22.520;2023-09-08T15:25:27;24.50;99.90
20400;DHT22;10359;53.596;22.520;2023-09-08T15:31:46;24.40;99.90
20400;DHT22;10359;53.596;22.520;2023-09-08T15:38:33;24.20;99.90
20400;DHT22;10359;53.596;22.520;2023-09-08T15:45:21;24.10;99.90
20400;DHT22;10359;53.596;22.520;2023-09-08T15:52:19;24.00;99.90
20400;DHT22;10359;53.596;22.520;2023-09-08T15:59:05;23.80;99.90
20400;DHT22;10359;53.596;22.520;2023-09-08T16:05:47;23.70;99.90
20400;DHT22;10359;53.596;22.520;2023-09-08T16:12:35;23.60;99.90
20400;DHT22;10359;53.596;22.520;2023-09-08T16:19:26;23.30;99.90
20400;DHT22;10359;53.596;22.520;2023-09-08T16:26:11;22.90;99.90
20400;DHT22;10359;53.596;22.520;2023-09-08T16:29:03;22.70;99.90
20400;DHT22;10359;53.596;22.520;2023-09-08T16:32:00;22.50;99.90
20400;DHT22;10359;53.596;22.520;2023-09-08T16:38:58;22.30;99.90
20400;DHT22;10359;53.596;22.520;2023-09-08T16:45:58;21.90;99.90
20400;DHT22;10359;53.596;22.520;2023-09-08T16:52:46;21.60;99.90
20400;DHT22;10359;53.596;22.520;2023-09-08T16:59:27;21.20;99.90
20400;DHT22;10359;53.596;22.520;2023-09-08T17:06:26;20.70;99.90
20400;DHT22;10359;53.596;22.520;2023-09-08T17:16:49;20.30;99.90
20400;DHT22;10359;53.596;22.520;2023-09-08T17:23:10;20.00;99.90
20400;DHT22;10359;53.596;22.520;2023-09-08T17:29:50;19.70;99.90
20400;DHT22;10359;53.596;22.520;2023-09-08T17:33:27;19.60;99.90
20400;DHT22;10359;53.596;22.520;2023-09-08T17:40:26;19.40;99.90
20400;DHT22;10359;53.596;22.520;2023-09-08T17:46:44;19.10;99.90
20400;DHT22;10359;53.596;22.520;2023-09-08T17:53:31;18.90;99.90
20400;DHT22;10359;53.596;22.520;2023-09-08T17:56:34;18.80;99.90
20400;DHT22;10359;53.596;22.520;2023-09-08T18:03:06;18.60;99.90
20400;DHT22;10359;53.596;22.520;2023-09-08T18:10:00;18.50;99.90
20400;DHT22;10359;53.596;22.520;2023-09-08T18:24:36;18.10;99.90
20400;DHT22;10359;53.596;22.520;2023-09-08T18:34:52;17.90;99.90
20400;DHT22;10359;53.596;22.520;2023-09-08T18:41:52;17.70;99.90
20400;DHT22;10359;53.596;22.520;2023-09-08T18:48:40;17.60;99.90
20400;DHT22;10359;53.596;22.520;2023-09-08T18:55:22;17.50;99.90
20400;DHT22;10359;53.596;22.520;2023-09-08T19:02:11;17.40;99.90
20400;DHT22;10359;53.596;22.520;2023-09-08T19:09:01;17.30;99.90
20400;DHT22;10359;53.596;22.520;2023-09-08T19:15:43;17.20;99.90
20400;DHT22;10359;53.596;22.520;2023-09-08T19:29:37;17.00;99.90
20400;DHT22;10359;53.596;22.520;2023-09-08T19:36:36;16.90;99.90
20400;DHT22;10359;53.596;22.520;2023-09-08T19:43:22;16.90;99.90
20400;DHT22;10359;53.596;22.520;2023-09-08T19:46:36;16.90;99.90
20400;DHT22;10359;53.596;22.520;2023-09-08T19:53:27;16.80;99.90
20400;DHT22;10359;53.596;22.520;2023-09-08T20:00:11;16.80;99.90
20400;DHT22;10359;53.596;22.520;2023-09-08T20:06:55;16.70;99.90
20400;DHT22;10359;53.596;22.520;2023-09-08T20:20:42;16.50;99.90
20400;DHT22;10359;53.596;22.520;2023-09-08T20:27:31;16.50;99.90
20400;DHT22;10359;53.596;22.520;2023-09-08T20:30:38;16.50;99.90
20400;DHT22;10359;53.596;22.520;2023-09-08T20:41:09;16.50;99.90
20400;DHT22;10359;53.596;22.520;2023-09-08T20:47:59;16.40;99.90
20400;DHT22;10359;53.596;22.520;2023-09-08T20:54:45;16.40;99.90
20400;DHT22;10359;53.596;22.520;2023-09-08T21:01:27;16.40;99.90
20400;DHT22;10359;53.596;22.520;2023-09-08T21:07:47;16.30;99.90
20400;DHT22;10359;53.596;22.520;2023-09-08T21:11:03;16.30;99.90
20400;DHT22;10359;53.596;22.520;2023-09-08T21:17:43;16.20;99.90
20400;DHT22;10359;53.596;22.520;2023-09-08T21:24:25;16.20;99.90
20400;DHT22;10359;53.596;22.520;2023-09-08T21:31:03;16.00;99.90
20400;DHT22;10359;53.596;22.520;2023-09-08T21:41:07;15.90;99.90
20400;DHT22;10359;53.596;22.520;2023-09-08T21:47:47;15.80;99.90
20400;DHT22;10359;53.596;22.520;2023-09-08T21:54:46;15.70;99.90
20400;DHT22;10359;53.596;22.520;2023-09-08T22:01:33;15.60;99.90
20400;DHT22;10359;53.596;22.520;2023-09-08T22:11:35;15.40;99.90
20400;DHT22;10359;53.596;22.520;2023-09-08T22:24:48;15.40;99.90
20400;DHT22;10359;53.596;22.520;2023-09-08T22:27:30;15.30;99.90
20400;DHT22;10359;53.596;22.520;2023-09-08T22:30:13;15.20;99.90
20400;DHT22;10359;53.596;22.520;2023-09-08T22:39:27;15.20;99.90
20400;DHT22;10359;53.596;22.520;2023-09-08T22:45:45;15.10;99.90
20400;DHT22;10359;53.596;22.520;2023-09-08T22:48:31;15.10;99.90
20400;DHT22;10359;53.596;22.520;2023-09-08T22:51:32;15.10;99.90
20400;DHT22;10359;53.596;22.520;2023-09-08T23:01:19;15.00;99.90
20400;DHT22;10359;53.596;22.520;2023-09-08T23:04:13;15.00;99.90
20400;DHT22;10359;53.596;22.520;2023-09-08T23:10:38;14.80;99.90
20400;DHT22;10359;53.596;22.520;2023-09-08T23:13:32;14.80;99.90
20400;DHT22;10359;53.596;22.520;2023-09-08T23:19:35;14.70;99.90
20400;DHT22;10359;53.596;22.520;2023-09-08T23:29:02;14.60;99.90
20400;DHT22;10359;53.596;22.520;2023-09-08T23:35:14;14.50;99.90
20400;DHT22;10359;53.596;22.520;2023-09-08T23:41:24;14.40;99.90
20400;DHT22;10359;53.596;22.520;2023-09-08T23:54:12;14.20;99.90
